Time;durP1;ratioP1;P1;durP2;ratioP2;P2;SDS_P1;SDS_P2;PMS_P1;PMS_P2;Temp;Humidity;BMP_temperature;BMP_pressure;BME280_temperature;BME280_humidity;BME280_pressure;Samples;Min_cycle;Max_cycle;Signal;HPM_P1;HPM_P2
2023/04/02 00:00:57;;;;;;;0.63;0.63;;;;;;;;;;5013395;28;20125;-79
2023/04/02 00:03:23;;;;;;;0.10;0.10;;;;;;;;;;4985446;28;20030;-79
2023/04/02 00:05:53;;;;;;;2.78;1.17;;;;;;;;;;4996062;28;20028;-78
2023/04/02 00:08:37;;;;;;;0.10;0.10;;;;;;;;;;4994667;28;20477;-81
2023/04/02 00:11:03;;;;;;;2.35;2.15;;;;;;;;;;5013339;28;20501;-80
2023/04/02 00:13:28;;;;;;;0.80;0.80;;;;;;;;;;4995776;28;20072;-78
2023/04/02 00:15:56;;;;;;;0.10;0.10;;;;;;;;;;5013279;28;20129;-80
2023/04/02 00:18:22;;;;;;;0.20;0.20;;;;;;;;;;5013556;28;20026;-79
2023/04/02 00:20:51;;;;;;;0.65;0.65;;;;;;;;;;5013729;28;20462;-78
2023/04/02 00:23:17;;;;;;;0.35;0.35;;;;;;;;;;4979699;28;20140;-78
2023/04/02 00:25:44;;;;;;;0.88;0.65;;;;;;;;;;4995789;28;20045;-78
2023/04/02 00:28:17;;;;;;;4.82;2.38;;;;;;;;;;4994283;28;20124;-77
2023/04/02 00:30:50;;;;;;;0.45;0.45;;;;;;;;;;5013239;28;20478;-77
2023/04/02 00:33:17;;;;;;;0.15;0.15;;;;;;;;;;5013164;28;20435;-78
2023/04/02 00:35:42;;;;;;;0.68;0.68;;;;;;;;;;4972127;28;20042;-77
2023/04/02 00:38:16;;;;;;;0.20;0.20;;;;;;;;;;4976083;28;20094;-77
2023/04/02 00:40:42;;;;;;;4.30;1.35;;;;;;;;;;4992433;28;20445;-78
2023/04/02 00:43:07;;;;;;;0.43;0.43;;;;;;;;;;4995999;28;20027;-77
2023/04/02 00:45:35;;;;;;;0.10;0.10;;;;;;;;;;4997262;28;20030;-78
2023/04/02 00:48:14;;;;;;;0.57;0.57;;;;;;;;;;5014514;28;20390;-78
2023/04/02 00:50:41;;;;;;;3.28;3.13;;;;;;;;;;5013504;28;20041;-79
2023/04/02 00:53:14;;;;;;;0.20;0.20;;;;;;;;;;4997191;28;20378;-79
2023/04/02 00:55:40;;;;;;;0.20;0.20;;;;;;;;;;4982314;28;20042;-78
2023/04/02 00:58:21;;;;;;;0.10;0.10;;;;;;;;;;4999218;28;20030;-81
2023/04/02 01:00:48;;;;;;;0.20;0.20;;;;;;;;;;5016844;28;20087;-81
2023/04/02 01:03:15;;;;;;;0.10;0.10;;;;;;;;;;4993992;28;20059;-79
2023/04/02 01:05:41;;;;;;;0.40;0.40;;;;;;;;;;4998730;28;20116;-82
2023/04/02 01:08:06;;;;;;;0.75;0.75;;;;;;;;;;4999439;28;20072;-82
2023/04/02 01:10:41;;;;;;;0.43;0.43;;;;;;;;;;5016944;28;20037;-83
2023/04/02 01:13:16;;;;;;;0.10;0.10;;;;;;;;;;5015325;28;20057;-83
2023/04/02 01:15:47;;;;;;;0.52;0.52;;;;;;;;;;4999301;28;20068;-82
2023/04/02 01:18:17;;;;;;;0.17;0.17;;;;;;;;;;5016638;28;20034;-82
2023/04/02 01:20:58;;;;;;;0.10;0.10;;;;;;;;;;4990712;28;20010;-83
2023/04/02 01:23:27;;;;;;;0.10;0.10;;;;;;;;;;4986478;28;20568;-82
2023/04/02 01:25:56;;;;;;;1.60;0.87;;;;;;;;;;4982592;28;20129;-84
2023/04/02 01:28:26;;;;;;;0.20;0.20;;;;;;;;;;5016465;28;20033;-82
2023/04/02 01:30:53;;;;;;;0.10;0.10;;;;;;;;;;4982381;28;20076;-83
2023/04/02 01:33:27;;;;;;;0.10;0.10;;;;;;;;;;5015255;28;20075;-82
2023/04/02 01:35:57;;;;;;;0.40;0.40;;;;;;;;;;4982076;28;20038;-84
2023/04/02 01:38:26;;;;;;;0.30;0.30;;;;;;;;;;4998895;28;20496;-82
2023/04/02 01:41:10;;;;;;;0.10;0.10;;;;;;;;;;4998534;28;20041;-76
2023/04/02 01:43:42;;;;;;;1.05;1.05;;;;;;;;;;5014688;28;20109;-76
2023/04/02 01:46:30;;;;;;;4.00;3.70;;;;;;;;;;5016010;28;20038;-76
2023/04/02 01:48:58;;;;;;;0.30;0.30;;;;;;;;;;5015890;28;20429;-77
2023/04/02 01:51:32;;;;;;;0.20;0.20;;;;;;;;;;4998368;28;20045;-77
2023/04/02 01:54:01;;;;;;;0.15;0.15;;;;;;;;;;4997806;28;20045;-77
2023/04/02 01:56:27;;;;;;;0.55;0.55;;;;;;;;;;5015983;28;20056;-76
2023/04/02 01:58:53;;;;;;;0.10;0.10;;;;;;;;;;4997693;28;20080;-76
2023/04/02 02:01:21;;;;;;;0.30;0.30;;;;;;;;;;5015594;28;20065;-78
2023/04/02 02:03:50;;;;;;;0.20;0.20;;;;;;;;;;4997549;28;20040;-79
2023/04/02 02:06:17;;;;;;;0.10;0.10;;;;;;;;;;4997739;28;20152;-79
2023/04/02 02:08:46;;;;;;;0.10;0.10;;;;;;;;;;4997893;28;20084;-79
2023/04/02 02:11:16;;;;;;;0.10;0.10;;;;;;;;;;4998016;28;20033;-79
2023/04/02 02:14:01;;;;;;;0.10;0.10;;;;;;;;;;4997826;28;20117;-78
2023/04/02 02:16:28;;;;;;;0.10;0.10;;;;;;;;;;4995552;28;20042;-79
2023/04/02 02:18:56;;;;;;;0.20;0.20;;;;;;;;;;5013501;28;20439;-80
2023/04/02 02:21:28;;;;;;;0.17;0.17;;;;;;;;;;4997758;28;20042;-80
2023/04/02 02:23:53;;;;;;;0.10;0.10;;;;;;;;;;4997676;28;20029;-76
2023/04/02 02:26:21;;;;;;;0.35;0.35;;;;;;;;;;4997475;28;20366;-76
2023/04/02 02:28:48;;;;;;;0.82;0.82;;;;;;;;;;4997335;28;20030;-78
2023/04/02 02:31:21;;;;;;;0.17;0.17;;;;;;;;;;4997389;28;20037;-76
2023/04/02 02:33:50;;;;;;;0.10;0.10;;;;;;;;;;4997530;28;20445;-76
2023/04/02 02:36:22;;;;;;;3.15;3.03;;;;;;;;;;4980582;28;20414;-78
2023/04/02 02:38:57;;;;;;;0.20;0.20;;;;;;;;;;4997334;28;20034;-77
2023/04/02 02:41:45;;;;;;;2.63;2.47;;;;;;;;;;4997240;28;20058;-77
2023/04/02 02:44:11;;;;;;;;;;;;;;;;;;4996784;28;20037;-78
2023/04/02 02:46:39;;;;;;;0.50;0.47;;;;;;;;;;4997071;28;19913;-75
2023/04/02 02:49:06;;;;;;;;;;;;;;;;;;4997588;28;20489;-76
2023/04/02 02:51:41;;;;;;;0.97;0.97;;;;;;;;;;4997118;28;19917;-76
2023/04/02 02:54:10;;;;;;;0.10;0.10;;;;;;;;;;4996930;28;20300;-76
2023/04/02 02:56:39;;;;;;;0.20;0.20;;;;;;;;;;4997851;28;20034;-76
2023/04/02 02:59:07;;;;;;;0.15;0.15;;;;;;;;;;4998133;28;20033;-76
2023/04/02 03:01:37;;;;;;;0.38;0.38;;;;;;;;;;4997382;28;20030;-77
2023/04/02 03:04:03;;;;;;;0.10;0.10;;;;;;;;;;4992087;28;20073;-76
2023/04/02 03:06:31;;;;;;;0.10;0.10;;;;;;;;;;5009617;28;20069;-76
2023/04/02 03:09:04;;;;;;;0.20;0.20;;;;;;;;;;4976938;28;20054;-76
2023/04/02 03:11:32;;;;;;;0.13;0.13;;;;;;;;;;4977186;28;20455;-76
2023/04/02 03:14:05;;;;;;;0.10;0.10;;;;;;;;;;4992457;28;20045;-76
2023/04/02 03:16:34;;;;;;;10.60;2.30;;;;;;;;;;5009965;28;20052;-75
2023/04/02 03:19:06;;;;;;;0.20;0.20;;;;;;;;;;4976569;28;20042;-76
2023/04/02 03:21:38;;;;;;;0.17;0.17;;;;;;;;;;4976451;28;20480;-76
2023/04/02 03:24:24;;;;;;;8.63;1.42;;;;;;;;;;4976777;28;20068;-76
2023/04/02 03:27:08;;;;;;;0.68;0.68;;;;;;;;;;4983432;28;20045;-76
2023/04/02 03:29:35;;;;;;;0.10;0.10;;;;;;;;;;4992659;28;20449;-75
2023/04/02 03:32:10;;;;;;;0.30;0.30;;;;;;;;;;4976324;28;20493;-78
2023/04/02 03:34:49;;;;;;;0.20;0.20;;;;;;;;;;4976652;28;20038;-79
2023/04/02 03:37:19;;;;;;;0.10;0.10;;;;;;;;;;4992697;28;20489;-81
2023/04/02 03:39:45;;;;;;;0.20;0.20;;;;;;;;;;5010543;28;20041;-80
2023/04/02 03:42:13;;;;;;;0.20;0.20;;;;;;;;;;4992634;28;20476;-79
2023/04/02 03:44:48;;;;;;;0.10;0.10;;;;;;;;;;4992281;28;20033;-80
2023/04/02 03:47:17;;;;;;;0.20;0.20;;;;;;;;;;4992159;28;20385;-80
2023/04/02 03:50:04;;;;;;;0.20;0.20;;;;;;;;;;4991071;28;20030;-78
2023/04/02 03:52:32;;;;;;;0.13;0.13;;;;;;;;;;5008988;28;20049;-81
2023/04/02 03:55:01;;;;;;;0.20;0.20;;;;;;;;;;4991976;28;20045;-81
2023/04/02 03:57:27;;;;;;;0.10;0.10;;;;;;;;;;5010071;28;20034;-79
2023/04/02 04:00:06;;;;;;;0.50;0.50;;;;;;;;;;5008795;28;20445;-79
2023/04/02 04:02:42;;;;;;;0.10;0.10;;;;;;;;;;5009315;28;20104;-77
2023/04/02 04:05:18;;;;;;;0.20;0.20;;;;;;;;;;5009795;28;20030;-77
2023/04/02 04:07:44;;;;;;;0.20;0.20;;;;;;;;;;4992041;28;20034;-76
2023/04/02 04:10:16;;;;;;;0.17;0.17;;;;;;;;;;5010263;28;20029;-76
2023/04/02 04:12:44;;;;;;;0.20;0.20;;;;;;;;;;4992335;28;20040;-76
2023/04/02 04:15:17;;;;;;;0.20;0.20;;;;;;;;;;4991949;28;20034;-77
2023/04/02 04:17:50;;;;;;;0.30;0.30;;;;;;;;;;4977608;28;20034;-76
2023/04/02 04:20:25;;;;;;;0.95;0.88;;;;;;;;;;4977363;28;20117;-77
2023/04/02 04:22:54;;;;;;;0.20;0.20;;;;;;;;;;4991111;28;20129;-75
2023/04/02 04:25:32;;;;;;;0.20;0.20;;;;;;;;;;5009197;28;20033;-76
2023/04/02 04:28:06;;;;;;;;;;;;;;;;;;4994429;28;20180;-77
2023/04/02 04:30:42;;;;;;;1.95;1.85;;;;;;;;;;4995309;28;19929;-75
2023/04/02 04:33:33;;;;;;;0.10;0.10;;;;;;;;;;4995381;28;20038;-77
2023/04/02 04:36:03;;;;;;;0.20;0.20;;;;;;;;;;4985512;28;20045;-75
2023/04/02 04:38:37;;;;;;;0.73;0.73;;;;;;;;;;4995385;28;20128;-76
2023/04/02 04:41:11;;;;;;;0.20;0.20;;;;;;;;;;4995482;28;20444;-76
2023/04/02 04:43:36;;;;;;;0.50;0.50;;;;;;;;;;4979459;28;20473;-79
2023/04/02 04:46:04;;;;;;;0.20;0.20;;;;;;;;;;4993162;28;20485;-76
2023/04/02 04:48:45;;;;;;;0.82;0.82;;;;;;;;;;4995753;28;20045;-76
2023/04/02 04:51:24;;;;;;;3.33;3.13;;;;;;;;;;4994753;28;20037;-77
2023/04/02 04:53:51;;;;;;;0.20;0.20;;;;;;;;;;4978103;28;21107;-76
2023/04/02 04:56:23;;;;;;;0.35;0.35;;;;;;;;;;4979384;28;20046;-75
2023/04/02 04:59:02;;;;;;;0.15;0.15;;;;;;;;;;4980014;28;20113;-75
2023/04/02 05:01:52;;;;;;;0.30;0.30;;;;;;;;;;5005654;28;20034;-81
2023/04/02 05:04:39;;;;;;;0.10;0.10;;;;;;;;;;5010349;28;20045;-80
2023/04/02 05:07:08;;;;;;;1.55;1.45;;;;;;;;;;4995287;28;20445;-79
2023/04/02 05:09:34;;;;;;;0.10;0.10;;;;;;;;;;5013862;28;20042;-81
2023/04/02 05:12:23;;;;;;;0.13;0.13;;;;;;;;;;4981956;28;20481;-81
2023/04/02 05:15:05;;;;;;;0.15;0.15;;;;;;;;;;4985705;28;20526;-80
2023/04/02 05:17:38;;;;;;;0.35;0.35;;;;;;;;;;4978982;28;20477;-79
2023/04/02 05:20:21;;;;;;;0.15;0.15;;;;;;;;;;5012241;28;20045;-80
2023/04/02 05:23:09;;;;;;;0.20;0.20;;;;;;;;;;4975940;28;20043;-79
2023/04/02 05:25:36;;;;;;;0.10;0.10;;;;;;;;;;4975690;28;20034;-78
2023/04/02 05:28:14;;;;;;;3.08;2.95;;;;;;;;;;4975523;28;20035;-78
2023/04/02 05:30:51;;;;;;;0.20;0.20;;;;;;;;;;4999346;28;20030;-78
2023/04/02 05:33:19;;;;;;;0.40;0.40;;;;;;;;;;4993698;28;20123;-78
2023/04/02 05:35:46;;;;;;;0.20;0.20;;;;;;;;;;4994649;28;20069;-78
2023/04/02 05:38:32;;;;;;;3.15;2.85;;;;;;;;;;4991610;28;20129;-77
2023/04/02 05:41:04;;;;;;;0.30;0.30;;;;;;;;;;4977315;28;20065;-78
2023/04/02 05:43:31;;;;;;;0.20;0.20;;;;;;;;;;5006321;28;20045;-79
2023/04/02 05:46:00;;;;;;;0.20;0.20;;;;;;;;;;4993194;28;20128;-78
2023/04/02 05:48:29;;;;;;;0.10;0.10;;;;;;;;;;4977687;28;20485;-78
2023/04/02 05:50:56;;;;;;;0.50;0.50;;;;;;;;;;4993618;28;20484;-78
2023/04/02 05:53:32;;;;;;;3.67;2.47;;;;;;;;;;4995106;28;20427;-78
2023/04/02 05:55:57;;;;;;;;;;;;;;;;;;4994584;28;20061;-78
2023/04/02 05:58:27;;;;;;;0.20;0.20;;;;;;;;;;5009462;28;19917;-78
2023/04/02 06:01:02;;;;;;;0.20;0.20;;;;;;;;;;4992747;28;20037;-79
2023/04/02 06:03:46;;;;;;;0.20;0.20;;;;;;;;;;4993962;28;20088;-79
2023/04/02 06:06:23;;;;;;;0.20;0.20;;;;;;;;;;5011683;28;20070;-79
2023/04/02 06:08:51;;;;;;;0.20;0.20;;;;;;;;;;5010443;28;20366;-78
2023/04/02 06:11:19;;;;;;;0.10;0.10;;;;;;;;;;4994132;28;20033;-81
2023/04/02 06:13:45;;;;;;;0.10;0.10;;;;;;;;;;4993205;28;20025;-75
2023/04/02 06:16:13;;;;;;;0.10;0.10;;;;;;;;;;4993408;28;20026;-77
2023/04/02 06:18:38;;;;;;;0.20;0.20;;;;;;;;;;5008537;28;20128;-77
2023/04/02 06:21:05;;;;;;;0.10;0.10;;;;;;;;;;5011578;28;20501;-77
2023/04/02 06:23:31;;;;;;;1.17;1.17;;;;;;;;;;4992247;28;20045;-77
2023/04/02 06:26:01;;;;;;;2.85;1.10;;;;;;;;;;4993309;28;20084;-77
2023/04/02 06:28:28;;;;;;;;;;;;;;;;;;4994434;28;20477;-78
2023/04/02 06:30:57;;;;;;;0.15;0.15;;;;;;;;;;5008354;28;19982;-77
2023/04/02 06:33:23;;;;;;;0.10;0.10;;;;;;;;;;4993197;28;20037;-77
2023/04/02 06:35:50;;;;;;;0.70;0.70;;;;;;;;;;5011137;28;20389;-77
2023/04/02 06:38:25;;;;;;;1.45;1.42;;;;;;;;;;5008056;28;20038;-76
2023/04/02 06:40:52;;;;;;;6.32;5.93;;;;;;;;;;4988007;28;20544;-79
2023/04/02 06:44:13;;;;;;;0.10;0.10;;;;;;;;;;4983875;28;20508;-78
2023/04/02 06:46:58;;;;;;;0.20;0.20;;;;;;;;;;4997545;28;20049;-78
2023/04/02 06:49:28;;;;;;;0.10;0.10;;;;;;;;;;4972502;28;20060;-80
2023/04/02 06:51:59;;;;;;;0.50;0.50;;;;;;;;;;4973178;28;20038;-80
2023/04/02 06:54:25;;;;;;;0.10;0.10;;;;;;;;;;4956556;28;20133;-81
2023/04/02 06:56:55;;;;;;;0.75;0.75;;;;;;;;;;4973524;28;20516;-80
2023/04/02 06:59:31;;;;;;;0.10;0.10;;;;;;;;;;4972172;28;20092;-82
2023/04/02 07:02:05;;;;;;;0.20;0.20;;;;;;;;;;4971889;28;20058;-80
2023/04/02 07:04:32;;;;;;;1.13;0.70;;;;;;;;;;4971488;28;20038;-79
2023/04/02 07:06:57;;;;;;;0.90;0.90;;;;;;;;;;4955439;28;20096;-79
2023/04/02 07:09:26;;;;;;;0.10;0.10;;;;;;;;;;4988925;28;20153;-76
2023/04/02 07:11:55;;;;;;;0.10;0.10;;;;;;;;;;4971727;28;20034;-76
2023/04/02 07:14:20;;;;;;;0.10;0.10;;;;;;;;;;4972973;28;20520;-76
2023/04/02 07:16:46;;;;;;;0.10;0.10;;;;;;;;;;4991037;28;20503;-75
2023/04/02 07:19:18;;;;;;;1.80;1.70;;;;;;;;;;4990374;28;20080;-76
2023/04/02 07:21:44;;;;;;;0.20;0.20;;;;;;;;;;4973077;28;20026;-76
2023/04/02 07:24:10;;;;;;;0.10;0.10;;;;;;;;;;4973662;28;20177;-79
2023/04/02 07:26:36;;;;;;;0.10;0.10;;;;;;;;;;4974666;28;20035;-76
2023/04/02 07:29:01;;;;;;;2.38;2.28;;;;;;;;;;4992645;28;20450;-78
2023/04/02 07:31:27;;;;;;;1.20;1.10;;;;;;;;;;4973855;28;20061;-80
2023/04/02 07:33:58;;;;;;;0.17;0.17;;;;;;;;;;4990668;28;20393;-79
2023/04/02 07:36:24;;;;;;;0.80;0.80;;;;;;;;;;4990736;28;20084;-75
2023/04/02 07:38:50;;;;;;;0.73;0.73;;;;;;;;;;4990331;28;20437;-78
2023/04/02 07:41:16;;;;;;;79.63;10.52;;;;;;;;;;4990086;28;20030;-79
2023/04/02 07:43:42;;;;;;;0.10;0.10;;;;;;;;;;4990424;28;20034;-78
2023/04/02 07:46:08;;;;;;;0.10;0.10;;;;;;;;;;4990705;28;20521;-76
2023/04/02 07:48:33;;;;;;;0.10;0.10;;;;;;;;;;4990392;28;20034;-78
2023/04/02 07:51:02;;;;;;;0.10;0.10;;;;;;;;;;4990610;28;20106;-78
2023/04/02 07:53:30;;;;;;;0.10;0.10;;;;;;;;;;4990261;28;20038;-78
2023/04/02 07:55:56;;;;;;;7.75;2.05;;;;;;;;;;4989848;28;20039;-77
2023/04/02 07:58:21;;;;;;;0.10;0.10;;;;;;;;;;4990009;28;20125;-78
2023/04/02 08:00:47;;;;;;;0.20;0.20;;;;;;;;;;4972693;28;20101;-77
2023/04/02 08:03:12;;;;;;;0.20;0.20;;;;;;;;;;4989838;28;20085;-79
2023/04/02 08:05:38;;;;;;;0.35;0.30;;;;;;;;;;4990286;28;20519;-78
2023/04/02 08:08:03;;;;;;;0.25;0.25;;;;;;;;;;4989901;28;20469;-76
2023/04/02 08:10:29;;;;;;;0.20;0.20;;;;;;;;;;4990172;28;20130;-78
2023/04/02 08:12:55;;;;;;;0.20;0.20;;;;;;;;;;4991312;28;20401;-79
2023/04/02 08:15:21;;;;;;;0.38;0.38;;;;;;;;;;5008143;28;20069;-78
2023/04/02 08:17:46;;;;;;;0.85;0.85;;;;;;;;;;5005626;28;20080;-78
2023/04/02 08:20:16;;;;;;;0.20;0.20;;;;;;;;;;5008074;28;20038;-80
2023/04/02 08:22:42;;;;;;;0.20;0.20;;;;;;;;;;4973703;28;20363;-79
2023/04/02 08:25:08;;;;;;;0.25;0.25;;;;;;;;;;5002138;28;20045;-80
2023/04/02 08:27:34;;;;;;;2.45;2.28;;;;;;;;;;4975038;28;20041;-80
2023/04/02 08:29:59;;;;;;;1.65;1.20;;;;;;;;;;5004002;28;20072;-79
2023/04/02 08:32:27;;;;;;;0.13;0.13;;;;;;;;;;4975280;28;20850;-80
2023/04/02 08:34:53;;;;;;;0.40;0.30;;;;;;;;;;4989936;28;20042;-80
2023/04/02 08:37:18;;;;;;;0.28;0.28;;;;;;;;;;4989737;28;20101;-80
2023/04/02 08:39:44;;;;;;;1.55;0.95;;;;;;;;;;4972312;28;20034;-79
2023/04/02 08:42:21;;;;;;;0.22;0.22;;;;;;;;;;4989796;28;20073;-78
2023/04/02 08:45:04;;;;;;;0.20;0.20;;;;;;;;;;4989803;28;20070;-78
2023/04/02 08:47:31;;;;;;;0.60;0.60;;;;;;;;;;4992321;28;20085;-78
2023/04/02 08:50:01;;;;;;;0.80;0.80;;;;;;;;;;4989860;28;20038;-79
2023/04/02 08:52:31;;;;;;;0.40;0.40;;;;;;;;;;4990018;28;20038;-78
2023/04/02 08:54:59;;;;;;;0.20;0.20;;;;;;;;;;4989365;28;20061;-79
2023/04/02 08:57:31;;;;;;;0.20;0.20;;;;;;;;;;4994189;28;20037;-82
2023/04/02 09:00:05;;;;;;;0.40;0.40;;;;;;;;;;5005508;28;20500;-76
2023/04/02 09:02:35;;;;;;;0.20;0.20;;;;;;;;;;4991553;28;20108;-76
2023/04/02 09:05:03;;;;;;;0.22;0.22;;;;;;;;;;5008058;28;20124;-76
2023/04/02 09:07:31;;;;;;;0.22;0.22;;;;;;;;;;4986706;28;20040;-75
2023/04/02 09:09:57;;;;;;;11.23;5.07;;;;;;;;;;4989062;28;20036;-76
2023/04/02 09:12:26;;;;;;;0.20;0.20;;;;;;;;;;4991496;28;20392;-74
2023/04/02 09:15:10;;;;;;;0.20;0.20;;;;;;;;;;5009298;28;20068;-76
2023/04/02 09:17:37;;;;;;;0.32;0.32;;;;;;;;;;5010743;28;20038;-76
2023/04/02 09:20:12;;;;;;;0.43;0.43;;;;;;;;;;5012145;28;20045;-76
2023/04/02 09:22:37;;;;;;;1.83;0.52;;;;;;;;;;5012565;28;20026;-76
2023/04/02 09:25:04;;;;;;;0.82;0.82;;;;;;;;;;5012438;28;20045;-76
2023/04/02 09:27:34;;;;;;;0.30;0.30;;;;;;;;;;5012304;28;20087;-76
2023/04/02 09:30:09;;;;;;;0.50;0.50;;;;;;;;;;5012260;28;20049;-75
2023/04/02 09:32:43;;;;;;;2.38;1.13;;;;;;;;;;4995014;28;20034;-76
2023/04/02 09:35:11;;;;;;;0.20;0.20;;;;;;;;;;5012141;28;20464;-76
2023/04/02 09:37:37;;;;;;;0.20;0.20;;;;;;;;;;5012477;28;20040;-76
2023/04/02 09:40:30;;;;;;;0.77;0.28;;;;;;;;;;5011676;28;20037;-77
2023/04/02 09:43:10;;;;;;;0.35;0.35;;;;;;;;;;5008398;28;20049;-75
2023/04/02 09:45:36;;;;;;;0.28;0.28;;;;;;;;;;4994732;28;20057;-76
2023/04/02 09:48:13;;;;;;;0.30;0.30;;;;;;;;;;5012235;28;20489;-75
2023/04/02 09:50:39;;;;;;;0.20;0.20;;;;;;;;;;5012018;28;20029;-75
2023/04/02 09:53:22;;;;;;;0.20;0.20;;;;;;;;;;5010255;28;20381;-76
2023/04/02 09:55:48;;;;;;;0.20;0.20;;;;;;;;;;5010958;28;20501;-76
2023/04/02 09:58:15;;;;;;;0.20;0.20;;;;;;;;;;5009079;28;20109;-77
2023/04/02 10:00:50;;;;;;;0.20;0.20;;;;;;;;;;4992651;28;20038;-76
2023/04/02 10:03:16;;;;;;;0.30;0.30;;;;;;;;;;5010754;28;20029;-75
2023/04/02 10:05:42;;;;;;;0.80;0.30;;;;;;;;;;4991997;28;20049;-75
2023/04/02 10:08:28;;;;;;;0.20;0.20;;;;;;;;;;5009970;28;20025;-75
2023/04/02 10:10:58;;;;;;;0.20;0.20;;;;;;;;;;5008769;28;20074;-75
2023/04/02 10:13:29;;;;;;;1.10;1.10;;;;;;;;;;5009505;28;20810;-75
2023/04/02 10:15:59;;;;;;;3.25;0.98;;;;;;;;;;4992137;28;20040;-77
2023/04/02 10:18:30;;;;;;;0.20;0.20;;;;;;;;;;4991777;28;20084;-76
2023/04/02 10:20:56;;;;;;;0.28;0.28;;;;;;;;;;5010952;28;20107;-76
2023/04/02 10:23:23;;;;;;;0.20;0.20;;;;;;;;;;5010138;28;20069;-76
2023/04/02 10:26:00;;;;;;;0.30;0.30;;;;;;;;;;5010929;28;20469;-76
2023/04/02 10:28:28;;;;;;;0.20;0.20;;;;;;;;;;4994078;28;20034;-76
2023/04/02 10:31:00;;;;;;;0.65;0.40;;;;;;;;;;5008692;28;20358;-76
2023/04/02 10:33:28;;;;;;;0.20;0.20;;;;;;;;;;4958121;28;20034;-76
2023/04/02 10:36:12;;;;;;;0.98;0.60;;;;;;;;;;4985971;28;20568;-75
2023/04/02 10:38:38;;;;;;;2.55;2.33;;;;;;;;;;5010638;28;20049;-76
2023/04/02 10:41:03;;;;;;;0.43;0.43;;;;;;;;;;5007587;28;20025;-76
2023/04/02 10:43:31;;;;;;;0.57;0.57;;;;;;;;;;5000546;28;20041;-76
2023/04/02 10:46:03;;;;;;;6.75;1.05;;;;;;;;;;5010514;28;20491;-76
2023/04/02 10:48:45;;;;;;;0.65;0.65;;;;;;;;;;5011064;28;20033;-77
2023/04/02 10:51:16;;;;;;;0.20;0.20;;;;;;;;;;4992705;28;20752;-75
2023/04/02 10:53:55;;;;;;;0.40;0.40;;;;;;;;;;4992342;28;20049;-74
2023/04/02 10:56:21;;;;;;;7.25;0.43;;;;;;;;;;4992002;28;20137;-76
2023/04/02 10:59:14;;;;;;;0.30;0.30;;;;;;;;;;5011032;28;20361;-75
2023/04/02 11:01:40;;;;;;;0.30;0.30;;;;;;;;;;4993179;28;20048;-76
2023/04/02 11:04:17;;;;;;;1.00;0.55;;;;;;;;;;5010752;28;20440;-75
2023/04/02 11:06:46;;;;;;;4.13;1.02;;;;;;;;;;5010862;28;20099;-75
2023/04/02 11:09:16;;;;;;;1.52;0.65;;;;;;;;;;4992268;28;20065;-74
2023/04/02 11:11:44;;;;;;;0.30;0.30;;;;;;;;;;5010779;28;20061;-76
2023/04/02 11:14:09;;;;;;;0.20;0.20;;;;;;;;;;5010354;28;20113;-76
2023/04/02 11:16:35;;;;;;;0.20;0.20;;;;;;;;;;5010622;28;20125;-75
2023/04/02 11:19:15;;;;;;;0.20;0.20;;;;;;;;;;5010414;28;20485;-75
2023/04/02 11:21:51;;;;;;;5.10;4.63;;;;;;;;;;5010086;28;20084;-75
2023/04/02 11:24:31;;;;;;;0.30;0.30;;;;;;;;;;5010173;28;20045;-76
2023/04/02 11:27:03;;;;;;;1.45;0.88;;;;;;;;;;5009265;28;20520;-76
2023/04/02 11:29:30;;;;;;;0.77;0.57;;;;;;;;;;5009264;28;20481;-76
2023/04/02 11:32:13;;;;;;;0.60;0.60;;;;;;;;;;5009971;28;20029;-76
2023/04/02 11:34:44;;;;;;;0.22;0.22;;;;;;;;;;5010308;28;20070;-76
2023/04/02 11:37:28;;;;;;;0.20;0.20;;;;;;;;;;5009036;28;20477;-76
2023/04/02 11:39:55;;;;;;;0.30;0.30;;;;;;;;;;5010051;28;20393;-76
2023/04/02 11:42:25;;;;;;;0.30;0.30;;;;;;;;;;5010170;28;20034;-76
2023/04/02 11:44:55;;;;;;;0.50;0.50;;;;;;;;;;4976812;28;20038;-75
2023/04/02 11:47:20;;;;;;;;;;;;;;;;;;5010232;28;20030;-75
2023/04/02 11:50:06;;;;;;;0.30;0.30;;;;;;;;;;5007725;28;20336;-76
2023/04/02 11:52:50;;;;;;;0.45;0.45;;;;;;;;;;5002499;28;20053;-76
2023/04/02 11:55:15;;;;;;;0.28;0.28;;;;;;;;;;4992677;28;20041;-76
2023/04/02 11:57:45;;;;;;;0.25;0.25;;;;;;;;;;4997049;28;20039;-76
2023/04/02 12:00:16;;;;;;;0.20;0.20;;;;;;;;;;4972406;28;20050;-76
2023/04/02 12:03:02;;;;;;;0.20;0.20;;;;;;;;;;4995839;28;20030;-76
2023/04/02 12:05:47;;;;;;;0.30;0.30;;;;;;;;;;5007216;28;20033;-76
2023/04/02 12:08:12;;;;;;;0.60;0.40;;;;;;;;;;5003704;28;20120;-77
2023/04/02 12:11:10;;;;;;;0.30;0.30;;;;;;;;;;4997522;28;20109;-77
2023/04/02 12:13:46;;;;;;;2.88;2.67;;;;;;;;;;4947008;28;20112;-76
2023/04/02 12:16:12;;;;;;;2.00;1.60;;;;;;;;;;4996950;28;20077;-76
2023/04/02 12:18:45;;;;;;;0.20;0.20;;;;;;;;;;4998113;28;20070;-76
2023/04/02 12:21:15;;;;;;;0.20;0.20;;;;;;;;;;4995701;28;20042;-75
2023/04/02 12:23:43;;;;;;;0.30;0.30;;;;;;;;;;5002738;28;20108;-74
2023/04/02 12:26:24;;;;;;;0.20;0.20;;;;;;;;;;4975523;28;20491;-75
2023/04/02 12:28:49;;;;;;;0.20;0.20;;;;;;;;;;5009991;28;20041;-74
2023/04/02 12:31:18;;;;;;;0.20;0.20;;;;;;;;;;4990433;28;20038;-76
2023/04/02 12:33:44;;;;;;;1.25;1.20;;;;;;;;;;4988315;28;20037;-74
2023/04/02 12:36:15;;;;;;;2.08;1.67;;;;;;;;;;4989683;28;20026;-74
2023/04/02 12:38:48;;;;;;;0.20;0.20;;;;;;;;;;4989010;28;20049;-74
2023/04/02 12:41:29;;;;;;;2.60;0.63;;;;;;;;;;4989958;28;20031;-74
2023/04/02 12:44:17;;;;;;;4.65;1.20;;;;;;;;;;4990100;28;20034;-76
2023/04/02 12:46:44;;;;;;;4.28;2.28;;;;;;;;;;4956407;28;20034;-75
2023/04/02 12:49:28;;;;;;;0.28;0.28;;;;;;;;;;5000823;28;20358;-74
2023/04/02 12:51:53;;;;;;;3.08;1.52;;;;;;;;;;5012210;28;20088;-74
2023/04/02 12:54:19;;;;;;;2.15;1.27;;;;;;;;;;5012840;28;20046;-75
2023/04/02 12:56:46;;;;;;;0.60;0.60;;;;;;;;;;4994307;28;20462;-75
2023/04/02 12:59:30;;;;;;;0.30;0.30;;;;;;;;;;5008698;28;20370;-75
2023/04/02 13:01:57;;;;;;;0.75;0.60;;;;;;;;;;5003057;28;20497;-74
2023/04/02 13:04:23;;;;;;;0.30;0.30;;;;;;;;;;5009469;28;20076;-75
2023/04/02 13:06:50;;;;;;;0.68;0.22;;;;;;;;;;5006330;28;20450;-75
2023/04/02 13:09:39;;;;;;;6.25;2.08;;;;;;;;;;4994297;28;20540;-75
2023/04/02 13:12:05;;;;;;;0.70;0.45;;;;;;;;;;4995486;28;20120;-75
2023/04/02 13:14:31;;;;;;;3.80;2.58;;;;;;;;;;5008886;28;20046;-75
2023/04/02 13:16:56;;;;;;;0.30;0.30;;;;;;;;;;5001584;28;20122;-75
2023/04/02 13:19:22;;;;;;;2.83;1.30;;;;;;;;;;4973973;28;20038;-74
2023/04/02 13:21:48;;;;;;;0.30;0.30;;;;;;;;;;4992767;28;20058;-74
2023/04/02 13:24:20;;;;;;;1.50;1.40;;;;;;;;;;4999986;28;20041;-73
2023/04/02 13:26:49;;;;;;;2.85;0.77;;;;;;;;;;4986536;28;20413;-73
2023/04/02 13:29:25;;;;;;;2.08;0.90;;;;;;;;;;4982905;28;20034;-73
2023/04/02 13:31:52;;;;;;;0.20;0.20;;;;;;;;;;4998101;28;20593;-73
2023/04/02 13:34:17;;;;;;;0.80;0.57;;;;;;;;;;5012127;28;20069;-74
2023/04/02 13:36:43;;;;;;;2.38;1.40;;;;;;;;;;5005942;28;20084;-73
2023/04/02 13:39:09;;;;;;;3.60;1.02;;;;;;;;;;4990987;28;20046;-75
2023/04/02 13:41:42;;;;;;;3.80;1.38;;;;;;;;;;4975425;28;20041;-76
2023/04/02 13:44:13;;;;;;;9.00;2.25;;;;;;;;;;4992968;28;20042;-74
2023/04/02 13:46:39;;;;;;;2.72;1.20;;;;;;;;;;5003019;28;20054;-74
2023/04/02 13:49:04;;;;;;;0.90;0.35;;;;;;;;;;5011197;28;20069;-73
2023/04/02 13:51:30;;;;;;;2.30;0.43;;;;;;;;;;5005826;28;20116;-73
2023/04/02 13:53:56;;;;;;;1.10;0.82;;;;;;;;;;5009109;28;20095;-73
2023/04/02 13:56:23;;;;;;;3.60;1.65;;;;;;;;;;4987054;28;20113;-74
2023/04/02 13:58:50;;;;;;;0.63;0.43;;;;;;;;;;4991808;28;20041;-74
2023/04/02 14:01:16;;;;;;;0.30;0.30;;;;;;;;;;5006813;28;20048;-75
2023/04/02 14:03:41;;;;;;;1.17;1.00;;;;;;;;;;4974059;28;20050;-74
2023/04/02 14:06:25;;;;;;;2.25;0.93;;;;;;;;;;4999048;28;20965;-76
2023/04/02 14:09:10;;;;;;;0.20;0.20;;;;;;;;;;4994188;28;20045;-75
2023/04/02 14:12:08;;;;;;;0.20;0.20;;;;;;;;;;4994687;28;20069;-74
2023/04/02 14:14:53;;;;;;;2.95;0.30;;;;;;;;;;4947314;28;20108;-74
2023/04/02 14:17:22;;;;;;;1.55;0.35;;;;;;;;;;5010803;28;20134;-75
2023/04/02 14:19:57;;;;;;;0.20;0.20;;;;;;;;;;5008858;28;20034;-74
2023/04/02 14:22:41;;;;;;;2.17;0.68;;;;;;;;;;5008767;28;20030;-74
2023/04/02 14:25:17;;;;;;;0.70;0.30;;;;;;;;;;5003971;28;20198;-76
2023/04/02 14:27:59;;;;;;;7.40;0.95;;;;;;;;;;4998985;28;20125;-73
2023/04/02 14:30:28;;;;;;;4.57;0.75;;;;;;;;;;5009773;28;20034;-74
2023/04/02 14:32:53;;;;;;;1.25;0.65;;;;;;;;;;5009081;28;20037;-75
2023/04/02 14:35:32;;;;;;;3.75;0.30;;;;;;;;;;5010608;28;20046;-73
2023/04/02 14:38:17;;;;;;;1.42;1.33;;;;;;;;;;5011381;28;20386;-74
2023/04/02 14:40:56;;;;;;;9.95;2.08;;;;;;;;;;4990112;28;20119;-75
2023/04/02 14:43:47;;;;;;;14.95;0.50;;;;;;;;;;5008582;28;20041;-73
2023/04/02 14:46:13;;;;;;;0.28;0.28;;;;;;;;;;4996715;28;20065;-73
2023/04/02 14:48:38;;;;;;;4.25;0.90;;;;;;;;;;5000459;28;20393;-71
2023/04/02 14:51:09;;;;;;;5.63;0.73;;;;;;;;;;5006556;28;20057;-73
2023/04/02 14:53:41;;;;;;;0.20;0.20;;;;;;;;;;4989020;28;20465;-72
2023/04/02 14:56:09;;;;;;;4.78;1.45;;;;;;;;;;4989751;28;20041;-73
2023/04/02 14:58:40;;;;;;;0.20;0.20;;;;;;;;;;5005802;28;20029;-73
2023/04/02 15:01:12;;;;;;;7.47;0.55;;;;;;;;;;5006845;28;20046;-73
2023/04/02 15:03:50;;;;;;;0.20;0.20;;;;;;;;;;5008509;28;20034;-73
2023/04/02 15:06:18;;;;;;;0.43;0.43;;;;;;;;;;4988565;28;20034;-75
2023/04/02 15:08:47;;;;;;;6.38;0.65;;;;;;;;;;4998948;28;20034;-73
2023/04/02 15:11:16;;;;;;;0.15;0.15;;;;;;;;;;5002280;28;20068;-73